sensor_id;sensor_type;location;lat;lon;timestamp;temperature;humidity
43524;DHT22;29120;52.006;6.020;2022-08-01T00:01:02;20.80;97.00
43524;DHT22;29120;52.006;6.020;2022-08-01T00:03:28;20.80;97.00
43524;DHT22;29120;52.006;6.020;2022-08-01T00:05:53;20.80;97.00
43524;DHT22;29120;52.006;6.020;2022-08-01T00:08:19;20.80;97.00
43524;DHT22;29120;52.006;6.020;2022-08-01T00:10:45;20.70;96.90
43524;DHT22;29120;52.006;6.020;2022-08-01T00:13:10;20.60;96.90
43524;DHT22;29120;52.006;6.020;2022-08-01T00:15:36;20.60;97.00
43524;DHT22;29120;52.006;6.020;2022-08-01T00:18:01;20.50;97.00
43524;DHT22;29120;52.006;6.020;2022-08-01T00:20:27;20.50;97.00
43524;DHT22;29120;52.006;6.020;2022-08-01T00:22:52;20.50;97.10
43524;DHT22;29120;52.006;6.020;2022-08-01T00:25:18;20.40;97.10
43524;DHT22;29120;52.006;6.020;2022-08-01T00:27:43;20.40;97.10
43524;DHT22;29120;52.006;6.020;2022-08-01T00:30:09;20.30;97.10
43524;DHT22;29120;52.006;6.020;2022-08-01T00:32:35;20.30;97.10
43524;DHT22;29120;52.006;6.020;2022-08-01T00:35:00;20.30;97.20
43524;DHT22;29120;52.006;6.020;2022-08-01T00:37:26;20.30;97.10
43524;DHT22;29120;52.006;6.020;2022-08-01T00:39:51;20.30;97.10
43524;DHT22;29120;52.006;6.020;2022-08-01T00:42:17;20.30;97.10
43524;DHT22;29120;52.006;6.020;2022-08-01T00:44:42;20.30;97.10
43524;DHT22;29120;52.006;6.020;2022-08-01T00:47:08;20.30;97.00
43524;DHT22;29120;52.006;6.020;2022-08-01T00:49:34;20.30;97.00
43524;DHT22;29120;52.006;6.020;2022-08-01T00:52:00;20.30;97.00
43524;DHT22;29120;52.006;6.020;2022-08-01T00:54:26;20.30;97.00
43524;DHT22;29120;52.006;6.020;2022-08-01T00:56:53;20.30;97.10
43524;DHT22;29120;52.006;6.020;2022-08-01T00:59:21;20.30;97.10
43524;DHT22;29120;52.006;6.020;2022-08-01T01:01:46;20.30;97.10
43524;DHT22;29120;52.006;6.020;2022-08-01T01:04:13;20.30;97.00
43524;DHT22;29120;52.006;6.020;2022-08-01T01:09:59;20.20;97.00
43524;DHT22;29120;52.006;6.020;2022-08-01T01:12:43;20.20;97.00
43524;DHT22;29120;52.006;6.020;2022-08-01T01:15:14;20.20;97.00
43524;DHT22;29120;52.006;6.020;2022-08-01T01:17:52;20.20;97.00
43524;DHT22;29120;52.006;6.020;2022-08-01T01:20:21;20.20;97.00
43524;DHT22;29120;52.006;6.020;2022-08-01T01:31:25;20.20;97.10
43524;DHT22;29120;52.006;6.020;2022-08-01T01:33:53;20.20;97.10
43524;DHT22;29120;52.006;6.020;2022-08-01T01:36:21;20.20;97.10
43524;DHT22;29120;52.006;6.020;2022-08-01T01:38:49;20.20;97.10
43524;DHT22;29120;52.006;6.020;2022-08-01T01:41:17;20.20;97.10
43524;DHT22;29120;52.006;6.020;2022-08-01T01:43:43;20.20;97.10
43524;DHT22;29120;52.006;6.020;2022-08-01T01:46:11;20.20;97.20
43524;DHT22;29120;52.006;6.020;2022-08-01T01:48:38;20.20;97.20
43524;DHT22;29120;52.006;6.020;2022-08-01T01:51:05;20.20;97.20
43524;DHT22;29120;52.006;6.020;2022-08-01T01:53:33;20.20;97.20
43524;DHT22;29120;52.006;6.020;2022-08-01T01:56:00;20.20;97.20
43524;DHT22;29120;52.006;6.020;2022-08-01T01:58:27;20.20;97.20
43524;DHT22;29120;52.006;6.020;2022-08-01T02:00:55;20.10;97.10
43524;DHT22;29120;52.006;6.020;2022-08-01T02:03:22;20.10;97.10
43524;DHT22;29120;52.006;6.020;2022-08-01T02:05:51;20.10;97.10
43524;DHT22;29120;52.006;6.020;2022-08-01T02:08:17;20.10;97.10
43524;DHT22;29120;52.006;6.020;2022-08-01T02:10:44;20.10;97.10
43524;DHT22;29120;52.006;6.020;2022-08-01T02:13:32;20.10;97.10
43524;DHT22;29120;52.006;6.020;2022-08-01T02:15:58;20.10;97.20
43524;DHT22;29120;52.006;6.020;2022-08-01T02:18:24;20.00;97.20
43524;DHT22;29120;52.006;6.020;2022-08-01T02:20:50;20.00;97.30
43524;DHT22;29120;52.006;6.020;2022-08-01T02:23:18;20.00;97.30
43524;DHT22;29120;52.006;6.020;2022-08-01T02:25:50;19.90;97.30
43524;DHT22;29120;52.006;6.020;2022-08-01T02:28:30;19.90;97.40
43524;DHT22;29120;52.006;6.020;2022-08-01T02:31:02;19.90;97.40
43524;DHT22;29120;52.006;6.020;2022-08-01T02:33:39;19.90;97.40
43524;DHT22;29120;52.006;6.020;2022-08-01T02:36:06;20.00;97.40
43524;DHT22;29120;52.006;6.020;2022-08-01T02:38:35;19.90;97.30
43524;DHT22;29120;52.006;6.020;2022-08-01T02:41:05;19.90;97.40
43524;DHT22;29120;52.006;6.020;2022-08-01T02:43:34;19.90;97.40
43524;DHT22;29120;52.006;6.020;2022-08-01T02:46:02;19.90;97.50
43524;DHT22;29120;52.006;6.020;2022-08-01T02:48:30;19.90;97.50
43524;DHT22;29120;52.006;6.020;2022-08-01T02:50:58;19.90;97.60
43524;DHT22;29120;52.006;6.020;2022-08-01T02:53:26;19.90;97.60
43524;DHT22;29120;52.006;6.020;2022-08-01T02:55:53;19.90;97.60
43524;DHT22;29120;52.006;6.020;2022-08-01T02:58:20;20.00;97.70
43524;DHT22;29120;52.006;6.020;2022-08-01T03:00:49;20.00;97.70
43524;DHT22;29120;52.006;6.020;2022-08-01T03:03:15;19.90;97.60
43524;DHT22;29120;52.006;6.020;2022-08-01T03:05:43;19.90;97.60
43524;DHT22;29120;52.006;6.020;2022-08-01T03:08:11;20.00;97.60
43524;DHT22;29120;52.006;6.020;2022-08-01T03:10:38;20.00;97.60
43524;DHT22;29120;52.006;6.020;2022-08-01T03:13:06;19.90;97.70
43524;DHT22;29120;52.006;6.020;2022-08-01T03:15:36;19.90;97.70
43524;DHT22;29120;52.006;6.020;2022-08-01T03:18:03;20.00;97.80
43524;DHT22;29120;52.006;6.020;2022-08-01T03:20:30;20.00;97.80
43524;DHT22;29120;52.006;6.020;2022-08-01T03:22:59;20.00;97.80
43524;DHT22;29120;52.006;6.020;2022-08-01T03:25:26;19.90;97.80
43524;DHT22;29120;52.006;6.020;2022-08-01T03:27:55;19.90;97.80
43524;DHT22;29120;52.006;6.020;2022-08-01T03:30:23;19.90;97.80
43524;DHT22;29120;52.006;6.020;2022-08-01T03:32:49;19.90;97.80
43524;DHT22;29120;52.006;6.020;2022-08-01T03:35:15;19.90;97.80
43524;DHT22;29120;52.006;6.020;2022-08-01T03:37:44;19.90;97.80
43524;DHT22;29120;52.006;6.020;2022-08-01T03:40:35;19.90;97.90
43524;DHT22;29120;52.006;6.020;2022-08-01T03:43:06;19.90;97.90
43524;DHT22;29120;52.006;6.020;2022-08-01T03:45:37;19.80;97.90
43524;DHT22;29120;52.006;6.020;2022-08-01T03:48:09;19.80;98.00
43524;DHT22;29120;52.006;6.020;2022-08-01T03:50:37;19.80;98.10
43524;DHT22;29120;52.006;6.020;2022-08-01T03:53:06;19.80;98.10
43524;DHT22;29120;52.006;6.020;2022-08-01T03:55:33;19.80;98.00
43524;DHT22;29120;52.006;6.020;2022-08-01T03:58:00;19.80;98.00
43524;DHT22;29120;52.006;6.020;2022-08-01T04:00:27;19.70;98.00
43524;DHT22;29120;52.006;6.020;2022-08-01T04:02:53;19.70;98.10
43524;DHT22;29120;52.006;6.020;2022-08-01T04:05:18;19.70;98.10
43524;DHT22;29120;52.006;6.020;2022-08-01T04:07:49;19.60;98.10
43524;DHT22;29120;52.006;6.020;2022-08-01T04:10:24;19.60;98.20
43524;DHT22;29120;52.006;6.020;2022-08-01T04:12:50;19.50;98.20
43524;DHT22;29120;52.006;6.020;2022-08-01T04:15:15;19.50;98.20
43524;DHT22;29120;52.006;6.020;2022-08-01T04:17:41;19.50;98.20
43524;DHT22;29120;52.006;6.020;2022-08-01T04:20:07;19.50;98.20
43524;DHT22;29120;52.006;6.020;2022-08-01T04:22:33;19.50;98.20
43524;DHT22;29120;52.006;6.020;2022-08-01T04:25:00;19.50;98.20
43524;DHT22;29120;52.006;6.020;2022-08-01T04:27:36;19.50;98.20
43524;DHT22;29120;52.006;6.020;2022-08-01T04:30:03;19.50;98.20
43524;DHT22;29120;52.006;6.020;2022-08-01T04:32:33;19.50;98.20
43524;DHT22;29120;52.006;6.020;2022-08-01T04:35:02;19.60;98.20
43524;DHT22;29120;52.006;6.020;2022-08-01T04:37:30;19.60;98.10
43524;DHT22;29120;52.006;6.020;2022-08-01T04:39:57;19.50;98.10
43524;DHT22;29120;52.006;6.020;2022-08-01T04:42:24;19.50;98.10
43524;DHT22;29120;52.006;6.020;2022-08-01T04:44:50;19.50;98.20
43524;DHT22;29120;52.006;6.020;2022-08-01T04:47:17;19.40;98.30
43524;DHT22;29120;52.006;6.020;2022-08-01T04:49:43;19.40;98.30
43524;DHT22;29120;52.006;6.020;2022-08-01T04:52:12;19.50;98.30
43524;DHT22;29120;52.006;6.020;2022-08-01T04:54:37;19.50;98.20
43524;DHT22;29120;52.006;6.020;2022-08-01T04:57:06;19.60;98.20
43524;DHT22;29120;52.006;6.020;2022-08-01T04:59:36;19.80;98.10
43524;DHT22;29120;52.006;6.020;2022-08-01T05:02:10;19.90;98.00
43524;DHT22;29120;52.006;6.020;2022-08-01T05:04:37;20.00;97.90
43524;DHT22;29120;52.006;6.020;2022-08-01T05:07:03;20.00;97.80
43524;DHT22;29120;52.006;6.020;2022-08-01T05:09:29;20.00;97.90
43524;DHT22;29120;52.006;6.020;2022-08-01T05:11:56;20.10;97.90
43524;DHT22;29120;52.006;6.020;2022-08-01T05:14:24;20.10;97.90
43524;DHT22;29120;52.006;6.020;2022-08-01T05:16:50;20.20;97.90
43524;DHT22;29120;52.006;6.020;2022-08-01T05:19:16;20.20;97.70
43524;DHT22;29120;52.006;6.020;2022-08-01T05:21:42;20.30;97.70
43524;DHT22;29120;52.006;6.020;2022-08-01T05:24:07;20.30;97.60
43524;DHT22;29120;52.006;6.020;2022-08-01T05:26:33;20.30;97.70
43524;DHT22;29120;52.006;6.020;2022-08-01T05:28:59;20.40;97.70
43524;DHT22;29120;52.006;6.020;2022-08-01T05:31:25;20.40;97.70
43524;DHT22;29120;52.006;6.020;2022-08-01T05:33:50;20.40;97.60
43524;DHT22;29120;52.006;6.020;2022-08-01T05:36:16;20.40;97.50
43524;DHT22;29120;52.006;6.020;2022-08-01T05:38:42;20.40;97.50
43524;DHT22;29120;52.006;6.020;2022-08-01T05:41:07;20.50;97.50
43524;DHT22;29120;52.006;6.020;2022-08-01T05:43:33;20.50;97.50
43524;DHT22;29120;52.006;6.020;2022-08-01T05:45:58;20.50;97.50
43524;DHT22;29120;52.006;6.020;2022-08-01T05:48:24;20.50;97.50
43524;DHT22;29120;52.006;6.020;2022-08-01T05:50:50;20.50;97.50
43524;DHT22;29120;52.006;6.020;2022-08-01T05:53:16;20.50;97.60
43524;DHT22;29120;52.006;6.020;2022-08-01T05:55:42;20.40;97.70
43524;DHT22;29120;52.006;6.020;2022-08-01T05:58:07;20.40;97.70
43524;DHT22;29120;52.006;6.020;2022-08-01T06:00:33;20.30;97.80
43524;DHT22;29120;52.006;6.020;2022-08-01T06:02:58;20.30;97.80
43524;DHT22;29120;52.006;6.020;2022-08-01T06:05:24;20.20;97.90
43524;DHT22;29120;52.006;6.020;2022-08-01T06:07:49;20.20;97.90
43524;DHT22;29120;52.006;6.020;2022-08-01T06:10:15;20.20;97.90
43524;DHT22;29120;52.006;6.020;2022-08-01T06:12:40;20.30;97.80
43524;DHT22;29120;52.006;6.020;2022-08-01T06:15:07;20.20;97.70
43524;DHT22;29120;52.006;6.020;2022-08-01T06:17:32;20.20;97.80
43524;DHT22;29120;52.006;6.020;2022-08-01T06:19:58;20.20;97.80
43524;DHT22;29120;52.006;6.020;2022-08-01T06:22:24;20.20;97.70
43524;DHT22;29120;52.006;6.020;2022-08-01T06:24:50;20.20;97.70
43524;DHT22;29120;52.006;6.020;2022-08-01T06:27:15;20.10;97.60
43524;DHT22;29120;52.006;6.020;2022-08-01T06:29:41;20.10;97.70
43524;DHT22;29120;52.006;6.020;2022-08-01T06:32:08;20.10;97.70
43524;DHT22;29120;52.006;6.020;2022-08-01T06:34:35;20.10;97.80
43524;DHT22;29120;52.006;6.020;2022-08-01T06:37:00;20.20;97.80
43524;DHT22;29120;52.006;6.020;2022-08-01T06:39:26;20.30;97.70
43524;DHT22;29120;52.006;6.020;2022-08-01T06:41:52;20.40;97.60
43524;DHT22;29120;52.006;6.020;2022-08-01T06:44:17;20.50;97.50
43524;DHT22;29120;52.006;6.020;2022-08-01T06:46:43;20.60;97.40
43524;DHT22;29120;52.006;6.020;2022-08-01T06:49:08;20.70;97.20
43524;DHT22;29120;52.006;6.020;2022-08-01T06:51:34;20.70;97.30
43524;DHT22;29120;52.006;6.020;2022-08-01T06:53:59;20.70;97.30
43524;DHT22;29120;52.006;6.020;2022-08-01T06:56:25;20.80;97.30
43524;DHT22;29120;52.006;6.020;2022-08-01T06:58:50;20.80;97.20
43524;DHT22;29120;52.006;6.020;2022-08-01T07:01:16;20.90;97.10
43524;DHT22;29120;52.006;6.020;2022-08-01T07:03:42;20.90;97.00
43524;DHT22;29120;52.006;6.020;2022-08-01T07:06:07;20.90;97.00
43524;DHT22;29120;52.006;6.020;2022-08-01T07:08:33;21.00;97.00
43524;DHT22;29120;52.006;6.020;2022-08-01T07:10:58;21.00;97.00
43524;DHT22;29120;52.006;6.020;2022-08-01T07:13:27;21.10;96.90
43524;DHT22;29120;52.006;6.020;2022-08-01T07:15:53;21.30;96.70
43524;DHT22;29120;52.006;6.020;2022-08-01T07:18:19;21.40;96.50
43524;DHT22;29120;52.006;6.020;2022-08-01T07:20:45;21.40;96.30
43524;DHT22;29120;52.006;6.020;2022-08-01T07:23:12;21.40;96.10
43524;DHT22;29120;52.006;6.020;2022-08-01T07:25:37;21.40;96.10
43524;DHT22;29120;52.006;6.020;2022-08-01T07:28:03;21.40;96.00
43524;DHT22;29120;52.006;6.020;2022-08-01T07:30:29;21.40;96.00
43524;DHT22;29120;52.006;6.020;2022-08-01T07:32:54;21.50;95.90
43524;DHT22;29120;52.006;6.020;2022-08-01T07:35:20;21.60;95.80
43524;DHT22;29120;52.006;6.020;2022-08-01T07:37:45;21.60;95.50
43524;DHT22;29120;52.006;6.020;2022-08-01T07:40:11;21.60;95.40
43524;DHT22;29120;52.006;6.020;2022-08-01T07:42:37;21.60;95.50
43524;DHT22;29120;52.006;6.020;2022-08-01T07:45:03;21.50;95.60
43524;DHT22;29120;52.006;6.020;2022-08-01T07:47:28;21.50;95.50
43524;DHT22;29120;52.006;6.020;2022-08-01T07:50:01;21.60;95.40
43524;DHT22;29120;52.006;6.020;2022-08-01T07:52:27;21.50;95.40
43524;DHT22;29120;52.006;6.020;2022-08-01T07:54:52;21.50;95.50
43524;DHT22;29120;52.006;6.020;2022-08-01T07:57:18;21.50;95.40
43524;DHT22;29120;52.006;6.020;2022-08-01T07:59:44;21.40;95.30
43524;DHT22;29120;52.006;6.020;2022-08-01T08:02:09;21.30;95.30
43524;DHT22;29120;52.006;6.020;2022-08-01T08:04:35;21.20;95.30
43524;DHT22;29120;52.006;6.020;2022-08-01T08:07:01;21.10;95.40
43524;DHT22;29120;52.006;6.020;2022-08-01T08:09:26;21.20;95.40
43524;DHT22;29120;52.006;6.020;2022-08-01T08:11:52;21.10;95.40
43524;DHT22;29120;52.006;6.020;2022-08-01T08:14:17;21.10;95.30
43524;DHT22;29120;52.006;6.020;2022-08-01T08:16:43;21.30;95.40
43524;DHT22;29120;52.006;6.020;2022-08-01T08:19:09;21.40;95.20
43524;DHT22;29120;52.006;6.020;2022-08-01T08:21:35;21.50;95.00
43524;DHT22;29120;52.006;6.020;2022-08-01T08:24:01;21.50;94.90
43524;DHT22;29120;52.006;6.020;2022-08-01T08:26:45;21.40;95.00
43524;DHT22;29120;52.006;6.020;2022-08-01T08:29:11;21.40;95.10
43524;DHT22;29120;52.006;6.020;2022-08-01T08:31:37;21.40;95.10
43524;DHT22;29120;52.006;6.020;2022-08-01T08:34:02;21.40;95.10
43524;DHT22;29120;52.006;6.020;2022-08-01T08:36:28;21.40;95.00
43524;DHT22;29120;52.006;6.020;2022-08-01T08:38:54;21.40;95.00
43524;DHT22;29120;52.006;6.020;2022-08-01T08:41:20;21.40;94.90
43524;DHT22;29120;52.006;6.020;2022-08-01T08:43:46;21.60;94.90
43524;DHT22;29120;52.006;6.020;2022-08-01T08:46:12;21.70;95.00
43524;DHT22;29120;52.006;6.020;2022-08-01T08:48:40;21.80;94.80
43524;DHT22;29120;52.006;6.020;2022-08-01T08:51:06;21.80;94.70
43524;DHT22;29120;52.006;6.020;2022-08-01T08:53:35;21.90;94.60
43524;DHT22;29120;52.006;6.020;2022-08-01T08:56:02;22.00;94.50
43524;DHT22;29120;52.006;6.020;2022-08-01T08:58:29;22.00;94.30
43524;DHT22;29120;52.006;6.020;2022-08-01T09:00:59;21.90;94.40
43524;DHT22;29120;52.006;6.020;2022-08-01T09:03:25;21.80;94.30
43524;DHT22;29120;52.006;6.020;2022-08-01T09:05:50;21.70;94.50
43524;DHT22;29120;52.006;6.020;2022-08-01T09:08:16;21.50;94.70
43524;DHT22;29120;52.006;6.020;2022-08-01T09:10:41;21.30;94.90
43524;DHT22;29120;52.006;6.020;2022-08-01T09:13:09;21.20;95.20
43524;DHT22;29120;52.006;6.020;2022-08-01T09:21:19;20.90;95.80
43524;DHT22;29120;52.006;6.020;2022-08-01T09:23:48;21.00;96.10
43524;DHT22;29120;52.006;6.020;2022-08-01T09:26:17;21.00;96.00
43524;DHT22;29120;52.006;6.020;2022-08-01T09:28:43;21.10;96.00
43524;DHT22;29120;52.006;6.020;2022-08-01T09:31:12;21.10;96.10
43524;DHT22;29120;52.006;6.020;2022-08-01T09:36:19;21.50;96.00
43524;DHT22;29120;52.006;6.020;2022-08-01T09:38:44;21.70;95.90
43524;DHT22;29120;52.006;6.020;2022-08-01T09:41:10;21.90;95.70
43524;DHT22;29120;52.006;6.020;2022-08-01T09:43:37;21.90;95.60
43524;DHT22;29120;52.006;6.020;2022-08-01T09:46:12;21.90;95.50
43524;DHT22;29120;52.006;6.020;2022-08-01T09:48:38;21.70;95.40
43524;DHT22;29120;52.006;6.020;2022-08-01T09:51:05;21.60;95.80
43524;DHT22;29120;52.006;6.020;2022-08-01T09:53:45;21.60;95.80
43524;DHT22;29120;52.006;6.020;2022-08-01T09:56:12;21.70;96.00
43524;DHT22;29120;52.006;6.020;2022-08-01T10:01:16;21.70;95.80
43524;DHT22;29120;52.006;6.020;2022-08-01T10:03:41;21.60;95.70
43524;DHT22;29120;52.006;6.020;2022-08-01T10:06:20;21.60;95.70
43524;DHT22;29120;52.006;6.020;2022-08-01T10:08:47;21.60;95.90
43524;DHT22;29120;52.006;6.020;2022-08-01T10:11:13;21.60;95.80
43524;DHT22;29120;52.006;6.020;2022-08-01T10:13:39;21.60;95.80
43524;DHT22;29120;52.006;6.020;2022-08-01T10:16:06;21.70;95.70
43524;DHT22;29120;52.006;6.020;2022-08-01T10:18:33;22.00;95.80
43524;DHT22;29120;52.006;6.020;2022-08-01T10:21:02;22.10;95.50
43524;DHT22;29120;52.006;6.020;2022-08-01T10:23:34;22.30;95.20
43524;DHT22;29120;52.006;6.020;2022-08-01T10:26:00;22.40;95.00
43524;DHT22;29120;52.006;6.020;2022-08-01T10:28:26;22.50;95.00
43524;DHT22;29120;52.006;6.020;2022-08-01T10:30:55;22.50;94.80
43524;DHT22;29120;52.006;6.020;2022-08-01T10:33:23;22.60;94.70
43524;DHT22;29120;52.006;6.020;2022-08-01T10:35:50;22.60;94.60
43524;DHT22;29120;52.006;6.020;2022-08-01T10:38:15;22.70;94.70
43524;DHT22;29120;52.006;6.020;2022-08-01T10:40:43;22.80;94.60
43524;DHT22;29120;52.006;6.020;2022-08-01T10:43:12;22.90;94.40
43524;DHT22;29120;52.006;6.020;2022-08-01T10:45:40;23.00;94.30
43524;DHT22;29120;52.006;6.020;2022-08-01T10:48:24;23.00;94.30
43524;DHT22;29120;52.006;6.020;2022-08-01T10:50:54;23.10;94.30
43524;DHT22;29120;52.006;6.020;2022-08-01T10:53:26;23.10;94.30
43524;DHT22;29120;52.006;6.020;2022-08-01T10:56:01;23.10;94.10
43524;DHT22;29120;52.006;6.020;2022-08-01T10:58:33;23.00;94.00
43524;DHT22;29120;52.006;6.020;2022-08-01T11:01:22;23.00;93.80
43524;DHT22;29120;52.006;6.020;2022-08-01T11:09:05;23.00;93.50
43524;DHT22;29120;52.006;6.020;2022-08-01T11:11:31;23.20;93.30
43524;DHT22;29120;52.006;6.020;2022-08-01T11:16:39;23.60;92.60
43524;DHT22;29120;52.006;6.020;2022-08-01T11:19:06;23.70;92.50
43524;DHT22;29120;52.006;6.020;2022-08-01T11:27:20;24.30;91.90
43524;DHT22;29120;52.006;6.020;2022-08-01T11:35:17;25.60;90.00
43524;DHT22;29120;52.006;6.020;2022-08-01T11:37:45;25.90;89.70
43524;DHT22;29120;52.006;6.020;2022-08-01T11:42:40;26.10;88.10
43524;DHT22;29120;52.006;6.020;2022-08-01T11:45:06;26.20;88.30
43524;DHT22;29120;52.006;6.020;2022-08-01T11:47:48;26.20;87.10
43524;DHT22;29120;52.006;6.020;2022-08-01T11:50:31;26.10;85.80
43524;DHT22;29120;52.006;6.020;2022-08-01T11:52:59;25.90;85.00
43524;DHT22;29120;52.006;6.020;2022-08-01T11:55:26;25.60;85.70
43524;DHT22;29120;52.006;6.020;2022-08-01T11:58:04;25.40;85.60
43524;DHT22;29120;52.006;6.020;2022-08-01T12:00:31;25.10;86.30
43524;DHT22;29120;52.006;6.020;2022-08-01T12:03:07;24.90;87.00
43524;DHT22;29120;52.006;6.020;2022-08-01T12:05:35;24.60;86.10
43524;DHT22;29120;52.006;6.020;2022-08-01T12:08:03;24.50;86.20
43524;DHT22;29120;52.006;6.020;2022-08-01T12:10:30;24.60;86.40
43524;DHT22;29120;52.006;6.020;2022-08-01T12:13:03;24.60;85.20
43524;DHT22;29120;52.006;6.020;2022-08-01T12:15:36;24.70;84.40
43524;DHT22;29120;52.006;6.020;2022-08-01T12:18:04;24.80;84.40
43524;DHT22;29120;52.006;6.020;2022-08-01T12:20:32;24.90;83.30
43524;DHT22;29120;52.006;6.020;2022-08-01T12:23:03;25.00;81.80
43524;DHT22;29120;52.006;6.020;2022-08-01T12:25:34;25.10;81.00
43524;DHT22;29120;52.006;6.020;2022-08-01T12:28:01;25.20;79.40
43524;DHT22;29120;52.006;6.020;2022-08-01T12:30:27;25.30;79.90
43524;DHT22;29120;52.006;6.020;2022-08-01T12:32:54;25.20;79.70
43524;DHT22;29120;52.006;6.020;2022-08-01T12:35:23;25.20;79.80
43524;DHT22;29120;52.006;6.020;2022-08-01T12:37:53;25.10;79.50
43524;DHT22;29120;52.006;6.020;2022-08-01T12:40:21;25.00;78.70
43524;DHT22;29120;52.006;6.020;2022-08-01T12:42:50;25.00;79.60
43524;DHT22;29120;52.006;6.020;2022-08-01T12:45:24;25.00;79.00
43524;DHT22;29120;52.006;6.020;2022-08-01T12:47:51;25.00;77.40
43524;DHT22;29120;52.006;6.020;2022-08-01T12:50:23;25.00;77.50
43524;DHT22;29120;52.006;6.020;2022-08-01T12:52:50;25.10;77.00
43524;DHT22;29120;52.006;6.020;2022-08-01T12:55:17;25.10;76.10
43524;DHT22;29120;52.006;6.020;2022-08-01T12:57:46;25.10;75.00
43524;DHT22;29120;52.006;6.020;2022-08-01T13:00:24;25.30;74.20
43524;DHT22;29120;52.006;6.020;2022-08-01T13:03:04;26.20;73.60
43524;DHT22;29120;52.006;6.020;2022-08-01T13:05:50;26.40;71.40
43524;DHT22;29120;52.006;6.020;2022-08-01T13:08:21;26.30;71.40
43524;DHT22;29120;52.006;6.020;2022-08-01T13:10:47;26.00;70.10
43524;DHT22;29120;52.006;6.020;2022-08-01T13:13:15;25.60;71.10
43524;DHT22;29120;52.006;6.020;2022-08-01T13:15:42;25.40;71.40
43524;DHT22;29120;52.006;6.020;2022-08-01T13:18:30;25.30;71.90
43524;DHT22;29120;52.006;6.020;2022-08-01T13:21:11;25.10;71.70
43524;DHT22;29120;52.006;6.020;2022-08-01T13:23:39;24.90;71.70
43524;DHT22;29120;52.006;6.020;2022-08-01T13:26:05;24.70;71.70
43524;DHT22;29120;52.006;6.020;2022-08-01T13:28:30;24.50;72.40
43524;DHT22;29120;52.006;6.020;2022-08-01T13:31:01;24.40;72.90
43524;DHT22;29120;52.006;6.020;2022-08-01T13:33:38;24.30;72.90
43524;DHT22;29120;52.006;6.020;2022-08-01T13:36:05;24.40;73.10
43524;DHT22;29120;52.006;6.020;2022-08-01T13:38:30;24.60;72.10
43524;DHT22;29120;52.006;6.020;2022-08-01T13:41:14;24.80;71.50
43524;DHT22;29120;52.006;6.020;2022-08-01T13:43:42;25.00;71.60
43524;DHT22;29120;52.006;6.020;2022-08-01T13:46:08;25.20;70.90
43524;DHT22;29120;52.006;6.020;2022-08-01T13:48:33;25.60;70.30
43524;DHT22;29120;52.006;6.020;2022-08-01T13:50:59;26.00;69.40
43524;DHT22;29120;52.006;6.020;2022-08-01T13:53:26;26.30;68.70
43524;DHT22;29120;52.006;6.020;2022-08-01T13:55:52;26.50;67.70
43524;DHT22;29120;52.006;6.020;2022-08-01T13:58:17;26.80;67.30
43524;DHT22;29120;52.006;6.020;2022-08-01T14:00:43;27.20;65.10
43524;DHT22;29120;52.006;6.020;2022-08-01T14:03:08;27.60;65.30
43524;DHT22;29120;52.006;6.020;2022-08-01T14:05:36;28.20;64.40
43524;DHT22;29120;52.006;6.020;2022-08-01T14:08:01;28.80;63.40
43524;DHT22;29120;52.006;6.020;2022-08-01T14:10:27;29.40;63.00
43524;DHT22;29120;52.006;6.020;2022-08-01T14:12:54;29.70;61.40
43524;DHT22;29120;52.006;6.020;2022-08-01T14:15:20;30.00;59.40
43524;DHT22;29120;52.006;6.020;2022-08-01T14:17:46;29.80;59.00
43524;DHT22;29120;52.006;6.020;2022-08-01T14:20:11;29.80;58.20
43524;DHT22;29120;52.006;6.020;2022-08-01T14:22:37;29.90;58.00
43524;DHT22;29120;52.006;6.020;2022-08-01T14:25:04;30.10;57.40
43524;DHT22;29120;52.006;6.020;2022-08-01T14:27:32;29.90;57.30
43524;DHT22;29120;52.006;6.020;2022-08-01T14:30:02;29.80;57.20
43524;DHT22;29120;52.006;6.020;2022-08-01T14:32:28;29.70;56.70
43524;DHT22;29120;52.006;6.020;2022-08-01T14:34:53;30.00;56.70
43524;DHT22;29120;52.006;6.020;2022-08-01T14:37:19;30.20;56.20
43524;DHT22;29120;52.006;6.020;2022-08-01T14:39:44;30.30;55.20
43524;DHT22;29120;52.006;6.020;2022-08-01T14:42:10;30.30;54.30
43524;DHT22;29120;52.006;6.020;2022-08-01T14:44:35;30.10;54.80
43524;DHT22;29120;52.006;6.020;2022-08-01T14:47:01;29.80;54.50
43524;DHT22;29120;52.006;6.020;2022-08-01T14:49:26;29.40;55.00
43524;DHT22;29120;52.006;6.020;2022-08-01T14:51:52;29.20;55.60
43524;DHT22;29120;52.006;6.020;2022-08-01T14:54:18;28.80;55.50
43524;DHT22;29120;52.006;6.020;2022-08-01T14:56:44;28.40;56.20
43524;DHT22;29120;52.006;6.020;2022-08-01T14:59:10;27.90;56.60
43524;DHT22;29120;52.006;6.020;2022-08-01T15:01:35;27.40;57.20
43524;DHT22;29120;52.006;6.020;2022-08-01T15:04:01;27.20;58.20
43524;DHT22;29120;52.006;6.020;2022-08-01T15:06:26;27.00;58.00
43524;DHT22;29120;52.006;6.020;2022-08-01T15:08:52;26.80;58.10
43524;DHT22;29120;52.006;6.020;2022-08-01T15:11:17;26.80;58.10
43524;DHT22;29120;52.006;6.020;2022-08-01T15:13:43;26.70;58.50
43524;DHT22;29120;52.006;6.020;2022-08-01T15:16:09;26.70;58.80
43524;DHT22;29120;52.006;6.020;2022-08-01T15:18:34;26.60;59.20
43524;DHT22;29120;52.006;6.020;2022-08-01T15:21:00;26.50;59.60
43524;DHT22;29120;52.006;6.020;2022-08-01T15:23:25;26.50;59.30
43524;DHT22;29120;52.006;6.020;2022-08-01T15:25:51;26.40;58.90
43524;DHT22;29120;52.006;6.020;2022-08-01T15:28:16;26.30;58.60
43524;DHT22;29120;52.006;6.020;2022-08-01T15:30:42;26.30;58.30
43524;DHT22;29120;52.006;6.020;2022-08-01T15:33:08;26.30;58.00
43524;DHT22;29120;52.006;6.020;2022-08-01T15:35:34;26.30;57.50
43524;DHT22;29120;52.006;6.020;2022-08-01T15:37:59;26.30;57.60
43524;DHT22;29120;52.006;6.020;2022-08-01T15:40:25;26.30;57.30
43524;DHT22;29120;52.006;6.020;2022-08-01T15:42:51;26.30;56.90
43524;DHT22;29120;52.006;6.020;2022-08-01T15:45:17;26.20;57.00
43524;DHT22;29120;52.006;6.020;2022-08-01T15:47:44;26.20;57.20
43524;DHT22;29120;52.006;6.020;2022-08-01T15:50:10;26.10;56.90
43524;DHT22;29120;52.006;6.020;2022-08-01T15:52:35;26.00;56.70
43524;DHT22;29120;52.006;6.020;2022-08-01T15:55:01;26.00;56.20
43524;DHT22;29120;52.006;6.020;2022-08-01T15:57:27;25.90;56.10
43524;DHT22;29120;52.006;6.020;2022-08-01T15:59:52;25.80;55.90
43524;DHT22;29120;52.006;6.020;2022-08-01T16:02:18;25.80;56.60
43524;DHT22;29120;52.006;6.020;2022-08-01T16:04:43;25.70;56.10
43524;DHT22;29120;52.006;6.020;2022-08-01T16:07:10;25.80;56.10
43524;DHT22;29120;52.006;6.020;2022-08-01T16:09:35;25.80;55.70
43524;DHT22;29120;52.006;6.020;2022-08-01T16:12:01;25.80;55.30
43524;DHT22;29120;52.006;6.020;2022-08-01T16:14:27;25.60;54.20
43524;DHT22;29120;52.006;6.020;2022-08-01T16:16:52;25.40;54.70